Time;durP1;ratioP1;P1;durP2;ratioP2;P2;SDS_P1;SDS_P2;PMS_P1;PMS_P2;Temp;Humidity;BMP_temperature;BMP_pressure;BME280_temperature;BME280_humidity;BME280_pressure;Samples;Min_cycle;Max_cycle;Signal;HPM_P1;HPM_P2
2022/12/07 00:00:19;;;;;;;20.47;13.60;;;2.50;99.90;;;;;;5049232;28;20520;-92
2022/12/07 00:02:45;;;;;;;20.97;13.53;;;2.50;99.90;;;;;;5051107;28;20194;-85
2022/12/07 00:05:11;;;;;;;20.53;13.83;;;2.50;99.90;;;;;;5050240;28;20263;-93
2022/12/07 00:07:36;;;;;;;19.97;13.63;;;2.50;99.90;;;;;;5050941;28;20189;-90
2022/12/07 00:10:02;;;;;;;20.97;13.53;;;2.50;99.90;;;;;;5054918;28;20236;-86
2022/12/07 00:12:28;;;;;;;19.93;13.43;;;2.50;99.90;;;;;;5048554;28;20569;-87
2022/12/07 00:14:54;;;;;;;20.17;13.47;;;2.60;99.90;;;;;;5042187;28;20571;-87
2022/12/07 00:17:20;;;;;;;21.70;13.60;;;2.50;99.90;;;;;;5035396;28;20189;-91
2022/12/07 00:19:45;;;;;;;20.60;14.07;;;2.60;99.90;;;;;;5053601;28;20662;-86
2022/12/07 00:22:11;;;;;;;22.67;14.17;;;2.60;99.90;;;;;;5034987;28;20196;-86
2022/12/07 00:24:38;;;;;;;21.53;14.27;;;2.60;99.90;;;;;;5055927;28;20192;-87
2022/12/07 00:27:03;;;;;;;21.80;14.47;;;2.60;99.90;;;;;;5034422;28;20243;-86
2022/12/07 00:29:29;;;;;;;21.23;14.13;;;2.70;99.90;;;;;;5034075;28;20276;-86
2022/12/07 00:31:55;;;;;;;24.60;13.83;;;2.70;99.90;;;;;;5033035;28;20186;-86
2022/12/07 00:34:22;;;;;;;23.60;13.93;;;2.70;99.90;;;;;;5037745;28;20205;-87
2022/12/07 00:36:49;;;;;;;22.47;15.07;;;2.70;99.90;;;;;;5034510;28;20185;-85
2022/12/07 00:39:15;;;;;;;22.23;15.00;;;2.70;99.90;;;;;;5051037;28;20632;-84
2022/12/07 00:41:41;;;;;;;22.27;13.77;;;2.70;99.90;;;;;;5050613;28;20178;-86
2022/12/07 00:44:06;;;;;;;25.67;14.27;;;2.70;99.90;;;;;;5034346;28;20190;-85
2022/12/07 00:46:32;;;;;;;23.47;14.73;;;2.80;99.90;;;;;;5033832;28;20209;-91
2022/12/07 00:48:58;;;;;;;29.83;15.40;;;2.80;99.90;;;;;;5035766;28;20261;-87
2022/12/07 00:51:25;;;;;;;25.97;15.63;;;2.80;99.90;;;;;;5035348;28;20695;-84
2022/12/07 00:53:53;;;;;;;23.93;15.07;;;2.80;99.90;;;;;;5053559;28;20178;-85
2022/12/07 00:56:24;;;;;;;25.83;14.93;;;2.80;99.90;;;;;;5045896;28;20179;-86
2022/12/07 00:58:55;;;;;;;29.30;15.60;;;2.80;99.90;;;;;;5017187;28;20194;-87
2022/12/07 01:01:22;;;;;;;27.90;16.10;;;2.80;99.90;;;;;;5025493;28;20173;-87
2022/12/07 01:03:48;;;;;;;27.27;17.13;;;2.80;99.90;;;;;;5059662;28;20181;-85
2022/12/07 01:06:16;;;;;;;29.13;16.50;;;2.80;99.90;;;;;;5036708;28;20652;-85
2022/12/07 01:08:42;;;;;;;27.37;16.13;;;2.90;99.90;;;;;;5039940;28;20631;-84
2022/12/07 01:11:12;;;;;;;27.27;16.07;;;2.90;99.90;;;;;;5062047;28;20229;-85
2022/12/07 01:13:38;;;;;;;31.50;17.33;;;2.90;99.90;;;;;;5055326;28;20174;-86
2022/12/07 01:16:05;;;;;;;30.87;17.23;;;2.90;99.90;;;;;;5051530;28;20195;-87
2022/12/07 01:18:33;;;;;;;31.07;17.47;;;2.90;99.90;;;;;;5072638;28;20196;-85
2022/12/07 01:21:14;;;;;;;30.87;17.97;;;2.90;99.90;;;;;;5070754;28;20181;-85
2022/12/07 01:23:41;;;;;;;38.30;18.63;;;3.00;99.90;;;;;;5056566;28;20166;-86
2022/12/07 01:26:11;;;;;;;32.20;18.10;;;3.00;99.90;;;;;;5047728;28;20222;-85
2022/12/07 01:28:37;;;;;;;35.87;18.03;;;3.00;99.90;;;;;;5037541;28;20185;-85
2022/12/07 01:31:10;;;;;;;31.30;17.17;;;3.00;99.90;;;;;;5053243;28;20189;-85
2022/12/07 01:33:36;;;;;;;35.77;19.10;;;3.00;99.90;;;;;;5039814;28;20186;-86
2022/12/07 01:36:16;;;;;;;40.27;17.73;;;3.00;99.90;;;;;;5052969;28;20747;-87
2022/12/07 01:38:44;;;;;;;29.67;17.07;;;3.10;99.90;;;;;;5047460;28;20182;-85
2022/12/07 01:41:10;;;;;;;35.07;18.27;;;3.10;99.90;;;;;;5054667;28;20192;-84
2022/12/07 01:43:36;;;;;;;35.47;17.87;;;3.10;99.90;;;;;;5043786;28;20187;-85
2022/12/07 01:46:04;;;;;;;33.80;18.33;;;3.10;99.90;;;;;;5043036;28;20304;-89
2022/12/07 01:48:39;;;;;;;36.97;17.80;;;3.10;99.90;;;;;;5044538;28;20186;-84
2022/12/07 01:51:10;;;;;;;37.93;18.77;;;3.10;99.90;;;;;;5072886;28;20246;-84
2022/12/07 01:53:40;;;;;;;38.40;19.80;;;3.10;99.90;;;;;;5049492;28;20569;-85
2022/12/07 01:56:09;;;;;;;30.50;18.33;;;3.10;99.90;;;;;;5055077;28;20193;-88
2022/12/07 01:58:37;;;;;;;38.20;18.57;;;3.10;99.90;;;;;;5037201;28;20185;-85
2022/12/07 02:01:03;;;;;;;42.47;20.17;;;3.20;99.90;;;;;;5067226;28;20186;-86
2022/12/07 02:03:40;;;;;;;34.60;19.43;;;3.20;99.90;;;;;;5052551;28;20265;-84
2022/12/07 02:06:07;;;;;;;40.20;20.23;;;3.20;99.90;;;;;;5062427;28;20267;-84
2022/12/07 02:08:33;;;;;;;41.47;19.83;;;3.20;99.90;;;;;;5035140;28;20232;-84
2022/12/07 02:11:02;;;;;;;35.93;19.30;;;3.20;99.90;;;;;;5056417;28;20740;-85
2022/12/07 02:13:32;;;;;;;40.40;20.40;;;3.20;99.90;;;;;;5054192;28;20213;-91
2022/12/07 02:16:19;;;;;;;41.70;22.00;;;3.20;99.90;;;;;;5037198;28;20216;-85
2022/12/07 02:19:06;;;;;;;38.00;18.47;;;3.20;99.90;;;;;;5035585;28;20191;-83
2022/12/07 02:22:00;;;;;;;38.93;20.13;;;3.30;99.90;;;;;;5035759;28;20339;-87
2022/12/07 02:24:40;;;;;;;38.63;19.93;;;3.30;99.90;;;;;;5025031;28;20181;-87
2022/12/07 02:27:30;;;;;;;40.13;20.87;;;3.30;99.90;;;;;;5030422;28;20236;-89
2022/12/07 02:30:03;;;;;;;40.50;20.87;;;3.30;99.90;;;;;;5046648;28;20545;-84
2022/12/07 02:32:47;;;;;;;44.83;20.83;;;3.30;99.90;;;;;;5056219;28;20189;-84
2022/12/07 02:35:30;;;;;;;41.67;22.13;;;3.30;99.90;;;;;;5035709;28;20252;-83
2022/12/07 02:38:08;;;;;;;41.93;22.47;;;3.40;99.90;;;;;;5036991;28;20488;-85
2022/12/07 02:43:47;;;;;;;41.17;21.60;;;3.30;99.90;;;;;;5383234;23;20299;-83
2022/12/07 02:46:33;;;;;;;41.00;21.60;;;3.40;99.90;;;;;;5017475;28;20228;-84
2022/12/07 02:49:00;;;;;;;39.87;21.37;;;3.40;99.90;;;;;;5034011;28;20186;-83
2022/12/07 02:51:33;;;;;;;41.67;21.37;;;3.40;99.90;;;;;;5016751;28;20185;-83
2022/12/07 02:54:00;;;;;;;36.53;19.73;;;3.40;99.90;;;;;;5015626;28;20182;-83
2022/12/07 02:56:41;;;;;;;44.87;21.60;;;3.40;99.90;;;;;;5007914;28;20193;-82
2022/12/07 02:59:40;;;;;;;36.27;19.83;;;3.50;99.90;;;;;;5015316;28;20236;-82
2022/12/07 03:02:30;;;;;;;39.30;20.53;;;3.50;99.90;;;;;;5047748;28;20196;-84
2022/12/07 03:05:08;;;;;;;37.30;20.30;;;3.50;99.90;;;;;;5053020;28;20630;-84
2022/12/07 03:08:26;;;;;;;35.27;19.80;;;3.50;99.90;;;;;;5028480;28;20623;-83
2022/12/07 03:11:04;;;;;;;33.23;18.73;;;3.60;99.90;;;;;;4949711;28;20596;-83
2022/12/07 03:13:41;;;;;;;33.47;17.33;;;3.60;99.90;;;;;;5030535;28;20197;-84
2022/12/07 03:16:19;;;;;;;39.83;17.90;;;3.60;99.90;;;;;;5035574;28;20185;-84
2022/12/07 03:18:58;;;;;;;30.20;17.27;;;3.60;99.90;;;;;;5034463;28;20211;-83
2022/12/07 03:21:38;;;;;;;33.77;17.07;;;3.60;99.90;;;;;;5033647;28;20616;-84
2022/12/07 03:24:11;;;;;;;34.83;17.17;;;3.60;99.90;;;;;;5052247;28;20192;-83
2022/12/07 03:26:44;;;;;;;30.30;17.13;;;3.60;99.90;;;;;;5045937;28;20208;-84
2022/12/07 03:29:30;;;;;;;27.60;15.67;;;3.70;99.90;;;;;;5026635;28;20190;-83
2022/12/07 03:32:05;;;;;;;24.57;15.53;;;3.70;99.90;;;;;;5012145;28;20214;-84
2022/12/07 03:34:36;;;;;;;28.80;15.47;;;3.70;99.90;;;;;;5052417;28;20174;-84
2022/12/07 03:37:12;;;;;;;23.97;14.63;;;3.70;99.90;;;;;;5035132;28;20181;-83
2022/12/07 03:39:49;;;;;;;28.30;15.60;;;3.70;99.90;;;;;;5050545;28;20256;-84
2022/12/07 03:42:15;;;;;;;19.27;13.40;;;3.70;99.90;;;;;;5057956;28;20279;-84
2022/12/07 03:44:42;;;;;;;24.50;14.13;;;3.80;99.90;;;;;;5047222;28;20177;-84
2022/12/07 03:47:27;;;;;;;26.37;14.37;;;3.80;99.90;;;;;;5053549;28;20299;-84
2022/12/07 03:50:12;;;;;;;24.87;13.97;;;3.70;99.90;;;;;;5053633;28;20192;-84
2022/12/07 03:53:22;;;;;;;27.13;14.20;;;3.80;99.90;;;;;;5044231;28;20200;-83
2022/12/07 03:55:49;;;;;;;23.80;13.80;;;3.80;99.90;;;;;;5025384;28;20188;-84
2022/12/07 03:58:18;;;;;;;23.63;12.93;;;3.90;99.90;;;;;;5066762;28;20173;-84
2022/12/07 04:00:45;;;;;;;22.70;12.40;;;3.90;99.90;;;;;;5038223;28;20273;-84
2022/12/07 04:03:11;;;;;;;18.23;11.20;;;3.80;99.90;;;;;;5043122;28;20620;-82
2022/12/07 04:05:38;;;;;;;18.60;11.10;;;3.80;99.90;;;;;;5039170;28;20562;-84
2022/12/07 04:08:04;;;;;;;18.13;10.60;;;3.90;99.90;;;;;;5053258;28;20284;-84
2022/12/07 04:10:30;;;;;;;20.80;11.17;;;3.90;99.90;;;;;;5043777;28;20664;-84
2022/12/07 04:12:56;;;;;;;16.37;9.90;;;4.00;99.90;;;;;;5054887;28;20208;-84
2022/12/07 04:15:22;;;;;;;18.30;9.80;;;3.90;99.90;;;;;;5044237;28;20231;-83
2022/12/07 04:17:48;;;;;;;16.10;9.57;;;3.90;99.90;;;;;;5069940;28;20608;-84
2022/12/07 04:20:13;;;;;;;14.77;9.53;;;3.90;99.90;;;;;;5064072;28;20184;-83
2022/12/07 04:22:39;;;;;;;14.33;9.20;;;4.00;99.90;;;;;;5061869;28;20201;-85
2022/12/07 04:25:05;;;;;;;16.37;9.90;;;3.90;99.90;;;;;;5049832;28;20189;-84
2022/12/07 04:27:31;;;;;;;17.33;9.30;;;4.00;99.90;;;;;;5070268;28;20181;-83
2022/12/07 04:29:57;;;;;;;18.67;9.47;;;3.90;99.90;;;;;;5062330;28;20191;-83
2022/12/07 04:32:23;;;;;;;21.40;9.00;;;4.00;99.90;;;;;;5075731;28;20203;-83
2022/12/07 04:34:50;;;;;;;16.43;8.33;;;4.00;99.90;;;;;;5083782;28;20185;-83
2022/12/07 04:37:17;;;;;;;18.77;9.57;;;4.00;99.90;;;;;;5055266;28;20189;-84
2022/12/07 04:39:44;;;;;;;15.83;8.77;;;4.10;99.90;;;;;;5054250;28;20268;-84
2022/12/07 04:42:10;;;;;;;15.43;8.60;;;4.10;99.90;;;;;;5054827;28;20238;-84
2022/12/07 04:44:36;;;;;;;14.50;8.80;;;4.10;99.90;;;;;;5048882;28;20186;-84
2022/12/07 04:47:02;;;;;;;18.27;8.90;;;4.10;99.90;;;;;;5073273;28;20265;-84
2022/12/07 04:49:28;;;;;;;12.60;8.50;;;4.10;99.90;;;;;;5058602;28;20394;-85
2022/12/07 04:51:54;;;;;;;13.67;8.03;;;4.10;99.90;;;;;;5076089;28;20564;-86
2022/12/07 04:54:20;;;;;;;13.03;7.87;;;4.00;99.90;;;;;;5057059;28;20201;-85
2022/12/07 04:56:46;;;;;;;15.37;8.43;;;4.00;99.90;;;;;;5057639;28;20181;-86
2022/12/07 04:59:13;;;;;;;13.50;7.50;;;4.00;99.90;;;;;;5057742;28;20195;-84
2022/12/07 05:01:39;;;;;;;14.90;8.37;;;4.00;99.90;;;;;;5075528;28;20192;-84
2022/12/07 05:04:06;;;;;;;13.43;7.93;;;4.00;99.90;;;;;;5074054;28;20601;-83
2022/12/07 05:06:32;;;;;;;13.03;7.70;;;4.00;99.90;;;;;;5068402;28;20250;-84
2022/12/07 05:08:57;;;;;;;12.47;7.90;;;4.00;99.90;;;;;;5075687;28;20173;-85
2022/12/07 05:11:38;;;;;;;14.83;8.03;;;4.00;99.90;;;;;;5054801;28;20173;-85
2022/12/07 05:14:22;;;;;;;14.23;8.07;;;4.00;99.90;;;;;;5074977;28;20181;-84
2022/12/07 05:16:50;;;;;;;12.20;7.80;;;4.00;99.90;;;;;;5045718;28;20243;-84
2022/12/07 05:19:17;;;;;;;11.13;7.67;;;3.90;99.90;;;;;;5075411;28;20639;-85
2022/12/07 05:21:43;;;;;;;15.23;7.47;;;3.90;99.90;;;;;;5058209;28;20182;-87
2022/12/07 05:24:11;;;;;;;12.60;6.97;;;3.80;99.90;;;;;;5058451;28;20185;-87
2022/12/07 05:26:37;;;;;;;9.93;6.67;;;3.80;99.90;;;;;;5049362;28;20229;-82
2022/12/07 05:29:03;;;;;;;14.00;6.73;;;3.90;99.90;;;;;;5058075;28;20212;-85
2022/12/07 05:31:29;;;;;;;12.17;6.63;;;3.90;99.90;;;;;;5054047;28;20206;-84
2022/12/07 05:33:55;;;;;;;8.80;6.47;;;3.90;99.90;;;;;;5057112;28;20282;-84
2022/12/07 05:36:21;;;;;;;12.73;6.93;;;3.90;99.90;;;;;;5061508;28;20181;-84
2022/12/07 05:38:46;;;;;;;12.57;7.20;;;3.80;99.90;;;;;;5049528;28;20204;-83
2022/12/07 05:44:02;;;;;;;12.47;6.87;;;3.80;99.90;;;;;;5055204;28;20224;-83
2022/12/07 05:46:28;;;;;;;14.40;7.40;;;3.80;99.90;;;;;;5031464;28;20213;-85
2022/12/07 05:48:54;;;;;;;16.23;7.13;;;3.70;99.90;;;;;;5030029;28;20205;-83
2022/12/07 05:51:20;;;;;;;11.77;7.30;;;3.70;99.90;;;;;;5036503;28;20190;-86
2022/12/07 05:53:46;;;;;;;15.60;6.70;;;3.70;99.90;;;;;;5036103;28;20672;-87
2022/12/07 05:56:14;;;;;;;12.17;7.37;;;3.70;99.90;;;;;;5037311;28;20205;-85
2022/12/07 06:01:24;;;;;;;10.53;6.73;;;3.60;99.90;;;;;;5043429;28;20196;-88
2022/12/07 06:03:49;;;;;;;9.97;6.67;;;3.60;99.90;;;;;;5056060;28;20177;-87
2022/12/07 06:06:16;;;;;;;13.63;6.87;;;3.50;99.90;;;;;;5037662;28;20213;-89
2022/12/07 06:08:42;;;;;;;13.83;6.70;;;3.50;99.90;;;;;;5038166;28;20294;-86
2022/12/07 06:13:51;;;;;;;11.97;6.70;;;3.50;99.90;;;;;;5056068;28;20216;-86
2022/12/07 06:16:17;;;;;;;12.80;6.43;;;3.50;99.90;;;;;;5042423;28;20178;-85
2022/12/07 06:18:43;;;;;;;10.90;6.60;;;3.40;99.90;;;;;;5034584;28;20575;-86
2022/12/07 06:21:08;;;;;;;11.57;6.90;;;3.50;99.90;;;;;;5034015;28;20265;-88
2022/12/07 06:23:34;;;;;;;11.10;7.20;;;3.40;99.90;;;;;;5037499;28;20184;-86
2022/12/07 06:26:00;;;;;;;14.97;6.90;;;3.30;99.90;;;;;;5053876;28;20209;-84
2022/12/07 06:28:26;;;;;;;10.20;6.80;;;3.40;99.90;;;;;;5047463;28;20189;-85
2022/12/07 06:31:01;;;;;;;12.17;7.17;;;3.40;99.90;;;;;;5037211;28;20231;-84
2022/12/07 06:33:28;;;;;;;11.77;6.40;;;3.40;99.90;;;;;;5037190;28;20568;-84
2022/12/07 06:35:56;;;;;;;13.70;6.87;;;3.40;99.90;;;;;;5052942;28;20565;-85
2022/12/07 06:38:22;;;;;;;12.67;6.50;;;3.40;99.90;;;;;;5036479;28;20628;-85
2022/12/07 06:40:48;;;;;;;9.23;6.57;;;3.40;99.90;;;;;;5035980;28;20229;-85
2022/12/07 06:43:13;;;;;;;12.80;6.87;;;3.40;99.90;;;;;;5067764;28;20698;-85
2022/12/07 06:45:41;;;;;;;12.63;6.70;;;3.40;99.90;;;;;;5048624;28;20232;-86
2022/12/07 06:48:07;;;;;;;9.37;6.23;;;3.40;99.90;;;;;;5054766;28;20227;-85
2022/12/07 06:50:32;;;;;;;11.27;6.73;;;3.40;99.90;;;;;;5037337;28;20178;-86
2022/12/07 06:52:58;;;;;;;11.70;6.33;;;3.40;99.90;;;;;;5037343;28;20185;-86
2022/12/07 06:55:24;;;;;;;10.43;6.57;;;3.40;99.90;;;;;;5031992;28;20178;-86
2022/12/07 06:57:54;;;;;;;9.27;6.90;;;3.40;99.90;;;;;;5077056;28;20556;-85
2022/12/07 07:00:19;;;;;;;9.17;5.30;;;3.40;99.90;;;;;;5075050;28;20599;-85
2022/12/07 07:02:45;;;;;;;9.57;5.43;;;3.40;99.90;;;;;;5056533;28;20181;-87
2022/12/07 07:05:11;;;;;;;7.23;4.90;;;3.50;99.90;;;;;;5053445;28;20185;-85
2022/12/07 07:07:38;;;;;;;8.03;4.70;;;3.50;99.90;;;;;;5054577;28;20269;-85
2022/12/07 07:10:04;;;;;;;6.63;4.50;;;3.40;99.90;;;;;;5054274;28;20173;-86
2022/12/07 07:12:30;;;;;;;8.33;4.93;;;3.40;99.90;;;;;;5042181;28;20174;-85
2022/12/07 07:14:56;;;;;;;8.30;5.07;;;3.40;99.90;;;;;;5015479;28;20273;-84
2022/12/07 07:17:22;;;;;;;5.07;3.97;;;3.40;99.90;;;;;;5050806;28;20185;-85
2022/12/07 07:19:47;;;;;;;5.23;3.83;;;3.30;99.90;;;;;;5059686;28;20177;-84
2022/12/07 07:22:13;;;;;;;6.30;4.00;;;3.40;99.90;;;;;;5041111;28;20265;-85
2022/12/07 07:24:39;;;;;;;8.93;4.23;;;3.40;99.90;;;;;;5054160;28;20182;-84
2022/12/07 07:27:04;;;;;;;6.00;4.20;;;3.40;99.90;;;;;;5035685;28;20237;-84
2022/12/07 07:29:30;;;;;;;6.97;4.40;;;3.40;99.90;;;;;;5067643;28;20227;-84
2022/12/07 07:31:56;;;;;;;5.57;4.03;;;3.40;99.90;;;;;;5060000;28;20185;-85
2022/12/07 07:34:21;;;;;;;8.37;4.73;;;3.30;99.90;;;;;;5049929;28;20190;-85
2022/12/07 07:36:47;;;;;;;7.40;4.10;;;3.30;99.90;;;;;;5016382;28;20206;-86
2022/12/07 07:39:13;;;;;;;9.20;5.07;;;3.30;99.90;;;;;;5027697;28;20181;-85
2022/12/07 07:41:39;;;;;;;7.73;4.60;;;3.20;99.90;;;;;;5046047;28;20227;-85
2022/12/07 07:44:05;;;;;;;7.63;4.47;;;3.30;99.90;;;;;;5054547;28;20197;-85
2022/12/07 07:46:32;;;;;;;8.77;4.87;;;3.30;99.90;;;;;;5073599;28;20509;-85
2022/12/07 07:48:58;;;;;;;8.17;4.63;;;3.30;99.90;;;;;;5073647;28;20205;-84
2022/12/07 07:51:24;;;;;;;9.27;4.23;;;3.30;99.90;;;;;;5073265;28;20685;-84
2022/12/07 07:53:49;;;;;;;7.73;4.93;;;3.30;99.90;;;;;;5069466;28;20200;-84
2022/12/07 07:56:16;;;;;;;6.27;4.57;;;3.30;99.90;;;;;;5058230;28;20655;-89
2022/12/07 07:58:42;;;;;;;8.67;5.27;;;3.30;99.90;;;;;;5054508;28;20177;-88
2022/12/07 08:01:08;;;;;;;9.13;5.50;;;3.30;99.90;;;;;;5073924;28;20484;-88
2022/12/07 08:03:34;;;;;;;6.40;4.80;;;3.30;99.90;;;;;;5054956;28;20169;-86
2022/12/07 08:06:02;;;;;;;5.40;4.57;;;3.30;99.90;;;;;;5075355;28;20225;-86
2022/12/07 08:08:29;;;;;;;9.30;5.23;;;3.40;99.90;;;;;;5073537;28;20173;-89
2022/12/07 08:10:55;;;;;;;7.57;5.13;;;3.40;99.90;;;;;;5052929;28;20185;-85
2022/12/07 08:13:20;;;;;;;8.37;5.20;;;3.40;99.90;;;;;;5035630;28;20173;-86
2022/12/07 08:15:47;;;;;;;10.20;6.23;;;3.40;99.90;;;;;;5073809;28;20182;-84
2022/12/07 08:18:15;;;;;;;9.13;5.90;;;3.40;99.90;;;;;;5078206;28;20699;-83
2022/12/07 08:20:41;;;;;;;11.50;5.87;;;3.50;99.90;;;;;;5079540;28;20179;-85
2022/12/07 08:23:08;;;;;;;10.50;5.83;;;3.50;99.90;;;;;;5079093;28;20587;-83
2022/12/07 08:25:34;;;;;;;9.93;5.73;;;3.60;99.90;;;;;;5058246;28;20236;-84
2022/12/07 08:28:00;;;;;;;10.50;5.63;;;3.60;99.90;;;;;;5059817;28;20181;-86
2022/12/07 08:30:27;;;;;;;10.03;5.33;;;3.50;99.90;;;;;;5050829;28;20216;-85
2022/12/07 08:32:53;;;;;;;11.23;5.33;;;3.50;99.90;;;;;;5057505;28;20185;-85
2022/12/07 08:35:19;;;;;;;9.07;5.10;;;3.60;99.90;;;;;;5072956;28;20187;-86
2022/12/07 08:37:46;;;;;;;7.50;4.90;;;3.60;99.90;;;;;;5059733;28;20181;-87
2022/12/07 08:40:18;;;;;;;8.43;4.70;;;3.60;99.90;;;;;;5059866;28;20173;-90
2022/12/07 08:42:49;;;;;;;9.93;4.93;;;3.60;99.90;;;;;;5049972;28;20240;-91
2022/12/07 08:45:16;;;;;;;7.50;4.53;;;3.60;99.90;;;;;;5049718;28;20273;-84
2022/12/07 08:47:51;;;;;;;8.57;4.83;;;3.60;99.90;;;;;;5049563;28;20613;-84
2022/12/07 08:50:17;;;;;;;8.33;4.90;;;3.60;99.90;;;;;;5039582;28;20190;-86
2022/12/07 08:52:44;;;;;;;8.47;4.87;;;3.60;99.90;;;;;;5051462;28;20210;-87
2022/12/07 08:55:12;;;;;;;5.70;4.33;;;3.60;99.90;;;;;;5038819;28;20938;-84
2022/12/07 08:57:40;;;;;;;7.50;4.20;;;3.60;99.90;;;;;;5038497;28;20658;-88
2022/12/07 09:00:07;;;;;;;10.73;4.70;;;3.60;99.90;;;;;;5039094;28;20190;-86
2022/12/07 09:02:32;;;;;;;8.53;4.60;;;3.60;99.90;;;;;;5038295;28;20635;-88
2022/12/07 09:04:58;;;;;;;7.57;4.40;;;3.70;99.90;;;;;;5017868;28;20178;-85
2022/12/07 09:07:27;;;;;;;12.20;4.67;;;3.70;99.90;;;;;;5043513;28;20221;-86
2022/12/07 09:09:52;;;;;;;6.47;4.20;;;3.80;99.90;;;;;;5055058;28;20174;-86
2022/12/07 09:12:18;;;;;;;10.77;4.83;;;3.80;99.90;;;;;;5037653;28;20190;-84
2022/12/07 09:14:44;;;;;;;8.60;4.57;;;3.80;99.90;;;;;;5038720;28;20612;-87
2022/12/07 09:17:12;;;;;;;6.70;4.10;;;3.80;99.90;;;;;;5044700;28;20277;-85
2022/12/07 09:19:47;;;;;;;6.90;4.07;;;3.80;99.90;;;;;;5035988;28;20586;-96
2022/12/07 09:22:13;;;;;;;7.60;4.50;;;3.90;99.90;;;;;;5038571;28;20190;-92
2022/12/07 09:24:39;;;;;;;8.37;4.47;;;3.90;99.90;;;;;;5034732;28;20241;-87
2022/12/07 09:27:08;;;;;;;6.87;4.27;;;3.80;99.90;;;;;;5030144;28;20210;-88
2022/12/07 09:29:33;;;;;;;7.87;4.00;;;3.80;99.90;;;;;;5035726;28;20233;-86
2022/12/07 09:31:59;;;;;;;9.13;4.00;;;3.80;99.90;;;;;;5034262;28;20189;-87
2022/12/07 09:34:26;;;;;;;11.87;4.57;;;3.80;99.90;;;;;;5034617;28;20208;-89
2022/12/07 09:36:52;;;;;;;9.80;4.23;;;3.80;99.90;;;;;;5036956;28;20196;-83
2022/12/07 09:39:17;;;;;;;9.60;4.00;;;3.80;99.90;;;;;;5037302;28;20182;-86
2022/12/07 09:41:45;;;;;;;6.27;3.73;;;3.80;99.90;;;;;;5048115;28;20239;-91
2022/12/07 09:44:16;;;;;;;8.77;2.97;;;3.90;99.90;;;;;;5048277;28;20660;-88
2022/12/07 09:46:44;;;;;;;7.27;2.93;;;3.80;99.90;;;;;;5058231;28;20233;-89
2022/12/07 09:49:18;;;;;;;6.87;2.97;;;3.90;99.90;;;;;;5024642;28;20208;-88
2022/12/07 09:51:45;;;;;;;5.97;2.90;;;3.90;99.90;;;;;;5047255;28;20180;-93
2022/12/07 09:54:16;;;;;;;3.53;2.63;;;3.90;99.90;;;;;;5071993;28;20181;-87
2022/12/07 09:56:43;;;;;;;8.07;2.60;;;4.00;99.90;;;;;;5053693;28;20185;-90
2022/12/07 09:59:19;;;;;;;5.53;3.00;;;3.90;99.90;;;;;;5038081;28;20181;-90
2022/12/07 10:01:47;;;;;;;7.40;2.97;;;3.90;99.90;;;;;;5060395;28;20177;-92
2022/12/07 10:04:24;;;;;;;5.53;3.47;;;3.80;99.90;;;;;;5035601;28;20174;-92
2022/12/07 10:06:51;;;;;;;5.93;3.23;;;3.90;99.90;;;;;;5039377;28;20267;-90
2022/12/07 10:09:20;;;;;;;7.10;2.90;;;3.90;99.90;;;;;;5058143;28;20181;-88
2022/12/07 10:12:09;;;;;;;6.67;3.40;;;3.90;99.90;;;;;;5033449;28;20275;-88
2022/12/07 10:14:56;;;;;;;6.80;3.40;;;3.90;99.90;;;;;;5035448;28;20170;-90
2022/12/07 10:17:35;;;;;;;7.50;3.50;;;3.90;99.90;;;;;;5041511;28;20174;-88
2022/12/07 10:20:19;;;;;;;5.20;2.90;;;4.00;99.90;;;;;;5037476;28;20580;-88
2022/12/07 10:23:04;;;;;;;9.10;3.33;;;3.90;99.90;;;;;;5037159;28;20181;-89
2022/12/07 10:25:36;;;;;;;5.57;2.90;;;4.10;99.90;;;;;;5038597;28;20197;-88
2022/12/07 10:28:17;;;;;;;6.30;3.10;;;4.10;99.90;;;;;;5052840;28;20524;-91
2022/12/07 10:31:03;;;;;;;5.33;2.97;;;4.20;99.90;;;;;;5051802;28;20174;-90
2022/12/07 10:33:35;;;;;;;6.37;3.33;;;4.10;99.90;;;;;;5028016;28;20250;-87
2022/12/07 10:36:20;;;;;;;9.47;2.90;;;4.20;99.90;;;;;;5036819;28;20182;-88
2022/12/07 10:39:17;;;;;;;7.80;3.00;;;4.20;99.90;;;;;;5044724;28;20230;-90
2022/12/07 10:41:57;;;;;;;9.20;3.50;;;4.20;99.90;;;;;;5034417;28;20218;-91
2022/12/07 10:44:29;;;;;;;7.73;3.07;;;4.30;99.90;;;;;;5039623;28;20257;-89
2022/12/07 10:47:34;;;;;;;10.83;3.17;;;4.30;99.90;;;;;;5034578;28;20305;-89
2022/12/07 10:50:25;;;;;;;6.00;2.10;;;4.30;99.90;;;;;;4982690;28;20177;-89
2022/12/07 10:53:15;;;;;;;4.37;1.97;;;4.30;99.90;;;;;;5032635;28;20205;-89
2022/12/07 10:56:10;;;;;;;7.63;2.50;;;4.20;99.90;;;;;;5042852;28;20265;-88
2022/12/07 10:58:56;;;;;;;6.90;2.40;;;4.30;99.90;;;;;;5047897;28;20227;-89
2022/12/07 11:01:25;;;;;;;5.83;2.13;;;4.30;99.90;;;;;;5045142;28;20173;-92
2022/12/07 11:04:09;;;;;;;3.77;1.90;;;4.30;99.90;;;;;;5060500;28;20223;-92
2022/12/07 11:06:43;;;;;;;5.57;2.00;;;4.40;99.90;;;;;;5055422;28;20206;-91
2022/12/07 11:09:34;;;;;;;2.57;2.10;;;4.30;99.90;;;;;;5055631;28;20173;-93
2022/12/07 11:12:35;;;;;;;6.60;2.10;;;4.30;99.90;;;;;;5043945;28;20196;-87
2022/12/07 11:15:19;;;;;;;4.50;1.60;;;4.20;99.90;;;;;;5022029;28;20642;-92
2022/12/07 11:17:48;;;;;;;5.37;1.87;;;4.30;99.90;;;;;;5054388;28;20177;-90
2022/12/07 11:20:28;;;;;;;2.93;1.43;;;4.30;99.90;;;;;;5054221;28;20487;-92
2022/12/07 11:23:00;;;;;;;4.97;1.90;;;4.30;99.90;;;;;;5055560;28;20241;-94
2022/12/07 11:25:40;;;;;;;3.70;1.80;;;4.40;99.90;;;;;;5054380;28;20169;-89
2022/12/07 11:28:25;;;;;;;4.10;1.90;;;4.40;99.90;;;;;;5054094;28;20189;-91
2022/12/07 11:30:58;;;;;;;4.77;1.90;;;4.30;99.90;;;;;;5055124;28;20197;-89
2022/12/07 11:33:31;;;;;;;1.57;1.30;;;4.30;99.90;;;;;;5054226;28;20197;-94
2022/12/07 11:36:31;;;;;;;3.77;1.10;;;4.30;99.90;;;;;;5054065;28;20187;-92
2022/12/07 11:39:03;;;;;;;8.90;1.80;;;4.30;99.90;;;;;;5042239;28;20185;-90
2022/12/07 11:41:34;;;;;;;3.20;1.10;;;4.30;99.90;;;;;;5053668;28;20288;-93
2022/12/07 11:44:19;;;;;;;3.97;1.43;;;4.30;99.90;;;;;;5057237;28;20294;-89
2022/12/07 11:47:02;;;;;;;4.17;1.20;;;4.40;99.90;;;;;;5074894;28;20205;-94
2022/12/07 11:49:58;;;;;;;2.53;1.37;;;4.40;99.90;;;;;;5054760;28;20174;-92
2022/12/07 11:52:35;;;;;;;2.23;1.10;;;4.30;99.90;;;;;;5057947;28;20264;-91
2022/12/07 11:55:05;;;;;;;5.00;1.63;;;4.30;99.90;;;;;;5041469;28;20184;-93
2022/12/07 11:57:44;;;;;;;8.53;1.40;;;4.40;99.90;;;;;;5062224;28;20775;-90
2022/12/07 12:00:21;;;;;;;3.60;2.00;;;4.40;99.90;;;;;;5055103;28;20168;-92
2022/12/07 12:03:12;;;;;;;6.20;1.40;;;4.40;99.90;;;;;;5044119;28;20181;-93
2022/12/07 12:05:39;;;;;;;6.33;2.10;;;4.50;99.90;;;;;;5034499;28;20208;-90
2022/12/07 12:08:21;;;;;;;3.53;1.70;;;4.50;99.90;;;;;;5043222;28;20628;-90
2022/12/07 12:11:24;;;;;;;4.77;2.20;;;4.50;99.90;;;;;;5068135;28;20189;-91
2022/12/07 12:14:14;;;;;;;2.60;1.60;;;4.50;99.90;;;;;;5074843;28;20252;-90
2022/12/07 12:16:58;;;;;;;4.83;2.10;;;4.50;99.90;;;;;;5056727;28;20192;-89
2022/12/07 12:19:45;;;;;;;4.23;1.83;;;4.40;99.90;;;;;;5071364;28;20176;-89
2022/12/07 12:22:17;;;;;;;7.27;1.63;;;4.50;99.90;;;;;;5083256;28;20215;-92
2022/12/07 12:24:50;;;;;;;3.43;1.33;;;4.50;99.90;;;;;;5054059;28;20169;-90
2022/12/07 12:27:32;;;;;;;1.00;0.70;;;4.50;99.90;;;;;;5073140;28;20212;-90
2022/12/07 12:30:44;;;;;;;1.87;1.17;;;4.50;99.90;;;;;;5055960;28;20264;-91
2022/12/07 12:33:30;;;;;;;3.33;1.07;;;4.40;99.90;;;;;;5073043;28;20229;-91
2022/12/07 12:36:15;;;;;;;5.43;1.27;;;4.40;99.90;;;;;;5095024;28;20169;-92
2022/12/07 12:39:08;;;;;;;7.23;1.50;;;4.50;99.90;;;;;;5045084;28;20623;-93
2022/12/07 12:41:38;;;;;;;8.60;1.50;;;4.50;99.90;;;;;;5056216;28;20185;-90
2022/12/07 12:44:18;;;;;;;7.73;1.70;;;4.60;99.90;;;;;;5046206;28;20312;-89
2022/12/07 12:46:54;;;;;;;2.23;1.23;;;4.60;99.90;;;;;;5073724;28;20235;-90
2022/12/07 12:49:32;;;;;;;3.20;1.23;;;4.50;99.90;;;;;;5059745;28;20180;-93
2022/12/07 12:52:24;;;;;;;3.17;1.27;;;4.70;99.90;;;;;;5056350;28;20204;-92
2022/12/07 12:55:14;;;;;;;4.53;1.40;;;4.80;99.90;;;;;;5075088;28;20186;-94
2022/12/07 12:57:40;;;;;;;4.23;1.20;;;4.90;99.90;;;;;;5076623;28;20184;-94
2022/12/07 13:00:24;;;;;;;3.03;1.20;;;4.90;99.90;;;;;;5073819;28;20219;-94
2022/12/07 13:02:54;;;;;;;3.63;1.60;;;4.90;99.90;;;;;;5058358;28;20196;-93
2022/12/07 13:05:24;;;;;;;4.00;1.33;;;4.80;99.90;;;;;;5060213;28;20180;-87
2022/12/07 13:07:57;;;;;;;8.00;1.50;;;4.80;99.90;;;;;;5078376;28;20184;-91
2022/12/07 13:10:45;;;;;;;2.33;1.03;;;4.80;99.90;;;;;;5060176;28;20187;-95
2022/12/07 13:13:12;;;;;;;7.17;2.50;;;4.80;99.90;;;;;;5060134;28;20201;-93
2022/12/07 13:15:45;;;;;;;4.03;1.50;;;4.80;99.90;;;;;;5059972;28;20188;-93
2022/12/07 13:18:30;;;;;;;4.47;1.17;;;4.70;99.90;;;;;;5060065;28;20230;-94
2022/12/07 13:21:08;;;;;;;1.77;1.07;;;4.70;99.90;;;;;;5052277;28;20173;-92
2022/12/07 13:23:46;;;;;;;3.03;1.07;;;4.70;99.90;;;;;;5059669;28;20181;-93